createdAt,value
2023-05-05T00:03:42.825Z,101311.34
2023-05-05T00:07:45.145Z,101289.56
2023-05-05T00:11:47.414Z,101295.47
2023-05-05T00:15:51.229Z,101299.66
2023-05-05T00:19:53.562Z,101273.69
2023-05-05T00:23:55.944Z,101253.59
2023-05-05T00:27:58.029Z,101282.03
2023-05-05T00:32:00.120Z,101291.31
2023-05-05T00:36:02.560Z,101261.88
2023-05-05T00:40:05.774Z,101269.16
2023-05-05T00:44:08.264Z,101285.81
2023-05-05T00:48:10.362Z,101264.72
2023-05-05T00:52:12.984Z,101261.09
2023-05-05T00:56:17.340Z,101246.53
2023-05-05T01:00:19.671Z,101251.00
2023-05-05T01:04:21.618Z,101229.22
2023-05-05T01:08:38.345Z,101257.69
2023-05-05T01:13:18.602Z,101279.56
2023-05-05T01:17:28.885Z,101244.50
2023-05-05T01:21:40.329Z,101252.34
2023-05-05T01:26:07.702Z,101239.09
2023-05-05T01:30:50.002Z,101244.69
2023-05-05T01:35:15.228Z,101238.75
2023-05-05T01:39:19.128Z,101218.88
2023-05-05T01:43:23.429Z,101205.81
2023-05-05T01:47:26.726Z,101207.44
2023-05-05T01:51:30.057Z,101220.44
2023-05-05T01:55:33.483Z,101229.63
2023-05-05T01:59:37.976Z,101217.44
2023-05-05T02:03:42.013Z,101232.34
2023-05-05T02:07:45.720Z,101232.56
2023-05-05T02:11:48.626Z,101214.50
2023-05-05T02:15:52.097Z,101210.09
2023-05-05T02:19:55.766Z,101186.84
2023-05-05T02:23:58.437Z,101199.81
2023-05-05T02:28:02.499Z,101218.72
2023-05-05T02:32:14.240Z,101206.97
2023-05-05T02:36:25.983Z,101182.81
2023-05-05T02:40:35.350Z,101176.91
2023-05-05T02:44:42.516Z,101192.88
2023-05-05T02:48:46.505Z,101192.69
2023-05-05T02:52:48.958Z,101199.03
2023-05-05T02:56:54.440Z,101182.28
2023-05-05T03:01:15.113Z,101200.25
2023-05-05T03:05:21.545Z,101193.75
2023-05-05T03:09:47.452Z,101209.03
2023-05-05T03:14:01.348Z,101202.81
2023-05-05T03:18:04.459Z,101197.75
2023-05-05T03:22:07.269Z,101209.69
2023-05-05T03:26:09.759Z,101213.66
2023-05-05T03:30:16.527Z,101206.25
2023-05-05T03:34:23.997Z,101190.53
2023-05-05T03:38:26.569Z,101189.31
2023-05-05T03:42:29.586Z,101198.56
2023-05-05T03:46:31.708Z,101220.91
2023-05-05T03:50:33.767Z,101223.34
2023-05-05T03:54:36.034Z,101216.06
2023-05-05T03:58:38.071Z,101200.16
2023-05-05T04:02:40.172Z,101201.72
2023-05-05T04:06:44.402Z,101211.19
2023-05-05T04:10:47.804Z,101240.56
2023-05-05T04:14:50.630Z,101211.75
2023-05-05T04:18:52.931Z,101218.47
2023-05-05T04:22:55.284Z,101257.38
2023-05-05T04:26:58.132Z,101297.78
2023-05-05T04:31:01.236Z,101314.34
2023-05-05T04:35:06.292Z,101331.91
2023-05-05T04:39:08.684Z,101329.72
2023-05-05T04:43:11.411Z,101337.28
2023-05-05T04:47:14.778Z,101342.31
2023-05-05T04:51:17.727Z,101338.94
2023-05-05T04:55:20.000Z,101352.59
2023-05-05T04:59:22.027Z,101350.59
2023-05-05T05:03:24.951Z,101352.47
2023-05-05T05:07:27.214Z,101355.00
2023-05-05T05:11:29.472Z,101359.31
2023-05-05T05:15:31.538Z,101362.75
2023-05-05T05:19:33.765Z,101358.88
2023-05-05T05:23:36.088Z,101357.41
2023-05-05T05:27:38.420Z,101361.34
2023-05-05T05:31:40.691Z,101361.09
2023-05-05T05:35:42.989Z,101355.22
2023-05-05T05:39:51.390Z,101356.22
2023-05-05T05:43:54.012Z,101358.09
2023-05-05T05:47:56.816Z,101359.00
2023-05-05T05:51:58.851Z,101366.22
2023-05-05T05:56:01.543Z,101360.88
2023-05-05T06:00:05.063Z,101364.66
2023-05-05T06:04:13.802Z,101364.84
2023-05-05T06:08:16.331Z,101356.63
2023-05-05T06:12:22.872Z,101367.13
2023-05-05T06:16:25.213Z,101359.88
2023-05-05T06:20:27.780Z,101367.88
2023-05-05T06:24:32.055Z,101361.75
2023-05-05T06:28:35.287Z,101361.56
2023-05-05T06:32:37.493Z,101361.28
2023-05-05T06:36:39.639Z,101372.19
2023-05-05T06:40:42.101Z,101372.00
2023-05-05T06:44:44.192Z,101364.56
2023-05-05T06:48:46.132Z,101358.72
2023-05-05T06:52:48.222Z,101363.63
2023-05-05T06:56:50.387Z,101379.41
2023-05-05T07:00:52.534Z,101374.63
2023-05-05T07:04:55.491Z,101369.63
2023-05-05T07:08:58.023Z,101365.78
2023-05-05T07:13:00.186Z,101368.56
2023-05-05T07:17:02.217Z,101369.31
2023-05-05T07:21:06.565Z,101376.19
2023-05-05T07:25:08.723Z,101382.91
2023-05-05T07:29:10.711Z,101375.56
2023-05-05T07:33:12.790Z,101378.25
2023-05-05T07:37:14.860Z,101367.03
2023-05-05T07:41:18.427Z,101368.91
2023-05-05T07:45:20.857Z,101367.22
2023-05-05T07:49:22.862Z,101376.00
2023-05-05T07:53:24.933Z,101376.09
2023-05-05T07:57:26.969Z,101369.00
2023-05-05T08:01:29.303Z,101371.03
2023-05-05T08:05:31.258Z,101376.75
2023-05-05T08:09:33.307Z,101377.16
2023-05-05T08:13:35.507Z,101368.38
2023-05-05T08:17:51.758Z,101379.09
2023-05-05T08:21:53.874Z,101375.91
2023-05-05T08:25:56.004Z,101381.63
2023-05-05T08:29:58.285Z,101387.78
2023-05-05T08:34:00.278Z,101389.50
2023-05-05T08:38:02.401Z,101386.72
2023-05-05T08:42:04.841Z,101383.63
2023-05-05T08:46:11.284Z,101387.13
2023-05-05T08:50:14.013Z,101383.75
2023-05-05T08:54:19.811Z,101388.53
2023-05-05T08:58:26.932Z,101380.28
2023-05-05T09:02:31.479Z,101376.84
2023-05-05T09:06:34.346Z,101380.16
2023-05-05T09:10:40.010Z,101380.91
2023-05-05T09:14:42.040Z,101383.97
2023-05-05T09:18:45.492Z,101385.03
2023-05-05T09:22:48.148Z,101386.88
2023-05-05T09:26:50.603Z,101375.34
2023-05-05T09:30:52.779Z,101386.50
2023-05-05T09:34:59.736Z,101377.59
2023-05-05T09:39:06.352Z,101379.00
2023-05-05T09:43:08.551Z,101377.03
2023-05-05T09:47:26.124Z,101373.47
2023-05-05T09:51:31.784Z,101382.63
2023-05-05T09:55:33.841Z,101376.03
2023-05-05T09:59:36.046Z,101381.13
2023-05-05T10:03:51.411Z,101379.50
2023-05-05T10:07:53.483Z,101377.38
2023-05-05T10:11:59.304Z,101380.09
2023-05-05T10:16:03.828Z,101380.44
2023-05-05T10:20:08.748Z,101386.09
2023-05-05T10:24:34.609Z,101383.28
2023-05-05T10:28:56.096Z,101381.47
2023-05-05T10:33:31.196Z,101390.63
2023-05-05T10:37:37.486Z,101382.28
2023-05-05T10:41:39.736Z,101388.56
2023-05-05T10:45:43.049Z,101389.31
2023-05-05T10:49:57.183Z,101366.75
2023-05-05T10:54:10.305Z,101374.19
2023-05-05T10:58:31.697Z,101380.66
2023-05-05T11:02:34.098Z,101376.72
2023-05-05T11:06:36.287Z,101377.84
2023-05-05T11:10:44.805Z,101375.53
2023-05-05T11:14:46.896Z,101370.66
2023-05-05T11:18:48.964Z,101374.28
2023-05-05T11:23:03.427Z,101364.00
2023-05-05T11:27:05.750Z,101367.19
2023-05-05T11:31:07.769Z,101375.59
2023-05-05T11:35:10.101Z,101369.09
2023-05-05T11:39:33.116Z,101366.88
2023-05-05T11:43:35.148Z,101379.75
2023-05-05T11:47:38.549Z,101376.16
2023-05-05T11:51:40.815Z,101372.03
2023-05-05T11:55:42.918Z,101381.91
2023-05-05T11:59:59.630Z,101367.56
2023-05-05T12:04:02.222Z,101375.53
2023-05-05T12:08:04.855Z,101375.56
2023-05-05T12:12:07.404Z,101378.78
2023-05-05T12:16:11.167Z,101370.97
2023-05-05T12:20:13.546Z,101371.19
2023-05-05T12:24:15.777Z,101365.66
2023-05-05T12:28:17.773Z,101364.09
2023-05-05T12:32:28.075Z,101383.38
2023-05-05T12:36:30.821Z,101373.38
2023-05-05T12:41:00.428Z,101372.47
2023-05-05T12:45:02.084Z,101376.44
2023-05-05T12:49:07.598Z,101378.34
2023-05-05T12:53:09.918Z,101380.72
2023-05-05T12:57:12.068Z,101372.88
2023-05-05T13:01:14.120Z,101378.28
2023-05-05T13:05:16.190Z,101385.50
2023-05-05T13:09:26.426Z,101372.94
2023-05-05T13:13:32.040Z,101383.88
2023-05-05T13:17:34.889Z,101382.25
2023-05-05T13:21:37.112Z,101380.03
2023-05-05T13:25:39.138Z,101372.09
2023-05-05T13:29:41.773Z,101377.81
2023-05-05T13:33:43.837Z,101386.19
2023-05-05T13:37:47.505Z,101378.06
2023-05-05T13:41:49.593Z,101380.53
2023-05-05T13:45:53.206Z,101378.06
2023-05-05T13:49:56.186Z,101366.66
2023-05-05T13:53:58.246Z,101375.38
2023-05-05T13:58:00.252Z,101376.00
2023-05-05T14:02:02.397Z,101370.81
2023-05-05T14:06:04.717Z,101377.94
2023-05-05T14:10:07.512Z,101366.38
2023-05-05T14:14:09.602Z,101369.72
2023-05-05T14:18:12.767Z,101372.63
2023-05-05T14:22:14.746Z,101373.78
2023-05-05T14:26:16.861Z,101368.06
2023-05-05T14:30:19.009Z,101378.78
2023-05-05T14:34:21.057Z,101377.44
2023-05-05T14:38:23.128Z,101390.63
2023-05-05T14:42:26.319Z,101383.28
2023-05-05T14:46:28.395Z,101379.00
2023-05-05T14:50:30.418Z,101388.72
2023-05-05T14:54:32.519Z,101381.50
2023-05-05T14:58:34.698Z,101372.03
2023-05-05T15:02:36.810Z,101372.34
2023-05-05T15:06:39.073Z,101391.72
2023-05-05T15:10:41.206Z,101394.09
2023-05-05T15:14:43.293Z,101394.69
2023-05-05T15:18:45.432Z,101389.72
2023-05-05T15:22:48.990Z,101393.66
2023-05-05T15:26:51.565Z,101394.09
2023-05-05T15:30:56.637Z,101395.34
2023-05-05T15:34:58.666Z,101402.34
2023-05-05T15:39:00.862Z,101405.03
2023-05-05T15:43:02.897Z,101406.94
2023-05-05T15:47:05.421Z,101407.41
2023-05-05T15:51:07.617Z,101400.78
2023-05-05T15:55:10.392Z,101400.13
2023-05-05T15:59:12.562Z,101397.50
2023-05-05T16:03:14.753Z,101399.56
2023-05-05T16:07:17.230Z,101399.19
2023-05-05T16:11:21.818Z,101397.88
2023-05-05T16:15:24.388Z,101399.72
2023-05-05T16:19:29.763Z,101396.50
2023-05-05T16:23:31.923Z,101402.09
2023-05-05T16:27:33.938Z,101400.88
2023-05-05T16:31:36.101Z,101397.31
2023-05-05T16:35:38.203Z,101398.97
2023-05-05T16:39:41.157Z,101397.81
2023-05-05T16:43:43.254Z,101393.16
2023-05-05T16:47:45.284Z,101391.28
2023-05-05T16:51:47.379Z,101395.19
2023-05-05T16:55:53.431Z,101388.91
2023-05-05T16:59:56.351Z,101399.03
2023-05-05T17:04:02.314Z,101401.69
2023-05-05T17:08:04.852Z,101400.03
2023-05-05T17:12:07.133Z,101406.00
2023-05-05T17:16:09.305Z,101404.41
2023-05-05T17:20:12.055Z,101415.03
2023-05-05T17:24:14.117Z,101408.72
2023-05-05T17:28:17.454Z,101411.84
2023-05-05T17:32:19.608Z,101403.25
2023-05-05T17:36:21.558Z,101417.31
2023-05-05T17:40:23.678Z,101412.28
2023-05-05T17:44:25.762Z,101416.63
2023-05-05T17:48:27.971Z,101423.84
2023-05-05T17:52:30.010Z,101424.63
2023-05-05T17:56:32.148Z,101436.75
2023-05-05T18:00:34.150Z,101439.53
2023-05-05T18:04:36.872Z,101441.69
2023-05-05T18:08:38.892Z,101441.09
2023-05-05T18:12:41.288Z,101442.91
2023-05-05T18:16:48.665Z,101455.16
2023-05-05T18:20:50.745Z,101453.47
2023-05-05T18:24:58.832Z,101450.84
2023-05-05T18:29:01.200Z,101454.38
2023-05-05T18:33:03.297Z,101450.72
2023-05-05T18:37:05.348Z,101459.31
2023-05-05T18:41:07.343Z,101462.63
2023-05-05T18:45:11.290Z,101466.41
2023-05-05T18:49:13.486Z,101466.41
2023-05-05T18:53:17.724Z,101475.38
2023-05-05T18:57:19.759Z,101468.84
2023-05-05T19:01:22.179Z,101458.72
2023-05-05T19:05:24.569Z,101460.81
2023-05-05T19:09:27.455Z,101466.31
2023-05-05T19:13:29.408Z,101468.31
2023-05-05T19:17:31.527Z,101459.72
2023-05-05T19:21:33.731Z,101459.78
2023-05-05T19:25:36.333Z,101467.91
2023-05-05T19:29:39.140Z,101458.56
2023-05-05T19:33:45.428Z,101467.25
2023-05-05T19:37:47.665Z,101453.91
2023-05-05T19:41:49.710Z,101460.44
2023-05-05T19:45:51.772Z,101461.63
2023-05-05T19:49:53.890Z,101461.69
2023-05-05T19:53:55.862Z,101463.28
2023-05-05T19:57:58.088Z,101461.97
2023-05-05T20:02:00.700Z,101454.88
2023-05-05T20:06:02.911Z,101456.44
2023-05-05T20:10:05.525Z,101463.00
2023-05-05T20:14:07.528Z,101459.41
2023-05-05T20:18:09.479Z,101466.34
2023-05-05T20:22:11.568Z,101457.69
2023-05-05T20:26:13.779Z,101450.47
2023-05-05T20:30:16.038Z,101457.09
2023-05-05T20:34:18.144Z,101454.84
2023-05-05T20:38:20.274Z,101453.66
2023-05-05T20:42:23.024Z,101455.97
2023-05-05T20:46:25.504Z,101448.53
2023-05-05T20:50:27.512Z,101455.94
2023-05-05T20:54:36.442Z,101454.34
2023-05-05T20:58:38.600Z,101457.94
2023-05-05T21:02:40.836Z,101456.22
2023-05-05T21:06:42.864Z,101444.84
2023-05-05T21:10:44.998Z,101452.91
2023-05-05T21:14:46.979Z,101452.44
2023-05-05T21:18:49.041Z,101451.09
2023-05-05T21:22:51.144Z,101458.31
2023-05-05T21:26:53.435Z,101456.66
2023-05-05T21:31:19.588Z,101453.97
2023-05-05T21:35:17.414Z,101460.88
2023-05-05T21:39:19.428Z,101463.63
2023-05-05T21:43:21.476Z,101462.63
2023-05-05T21:47:23.583Z,101465.13
2023-05-05T21:51:25.706Z,101459.69
2023-05-05T21:55:27.697Z,101459.75
2023-05-05T21:59:29.786Z,101454.75
2023-05-05T22:03:31.860Z,101448.88
2023-05-05T22:07:34.086Z,101441.69
2023-05-05T22:11:36.541Z,101438.88
2023-05-05T22:15:45.989Z,101445.72
2023-05-05T22:19:48.972Z,101442.09
2023-05-05T22:23:51.169Z,101436.81
2023-05-05T22:27:53.123Z,101441.94
2023-05-05T22:31:55.230Z,101434.41
2023-05-05T22:35:57.344Z,101440.88
2023-05-05T22:39:59.718Z,101437.72
2023-05-05T22:44:01.795Z,101424.38
2023-05-05T22:48:04.111Z,101414.66
2023-05-05T22:52:06.154Z,101413.25
2023-05-05T22:56:08.205Z,101406.59
2023-05-05T23:00:10.776Z,101410.44
2023-05-05T23:04:12.828Z,101391.59
2023-05-05T23:08:14.951Z,101387.94
2023-05-05T23:12:17.589Z,101398.13
2023-05-05T23:16:19.220Z,101399.84
2023-05-05T23:20:21.325Z,101385.31
2023-05-05T23:24:23.422Z,101391.22
2023-05-05T23:28:25.545Z,101391.09
2023-05-05T23:32:27.599Z,101391.09
2023-05-05T23:36:29.768Z,101384.56
2023-05-05T23:40:31.972Z,101398.25
2023-05-05T23:44:34.037Z,101386.13
2023-05-05T23:48:36.058Z,101383.50
2023-05-05T23:52:38.069Z,101392.22
2023-05-05T23:56:41.067Z,101406.25
